Time,TemperatureF,DewpointF,PressureIn,WindDirection,WindDirectionDegrees,WindSpeedMPH,WindSpeedGustMPH,Humidity,HourlyPrecipIn,Conditions,Clouds,dailyrainin,SolarRadiationWatts/m^2,SoftwareType,DateUTC
2013-01-27 00:00:00,15.4,-0.8,30.33,North,0,0.0,0.0,48,0.00,CLR,,0.00,0.0,WeatherDisplay:10.37,2013-01-27 05:00:00,
2013-01-27 00:01:00,15.4,-0.8,30.33,North,0,0.0,0.0,48,0.00,CLR,,0.00,0.0,WeatherDisplay:10.37,2013-01-27 05:01:00,
2013-01-27 00:02:00,15.4,-0.8,30.33,North,0,0.0,0.0,48,0.00,CLR,,0.00,0.0,WeatherDisplay:10.37,2013-01-27 05:02:00,
2013-01-27 00:04:00,15.4,-0.8,30.33,North,0,0.0,0.0,48,0.00,CLR,,0.00,0.0,WeatherDisplay:10.37,2013-01-27 05:04:00,
2013-01-27 00:09:00,15.4,-0.8,30.33,North,0,0.0,0.0,48,0.00,CLR,,0.00,0.0,WeatherDisplay:10.37,2013-01-27 05:09:00,
2013-01-27 00:14:00,16.0,-0.3,30.33,North,0,0.0,0.0,48,0.00,CLR,,0.00,0.0,WeatherDisplay:10.37,2013-01-27 05:14:00,
2013-01-27 00:19:00,16.3,0.0,30.33,North,0,0.0,0.0,48,0.00,CLR,,0.00,0.0,WeatherDisplay:10.37,2013-01-27 05:19:00,
2013-01-27 00:24:00,16.5,-0.2,30.33,North,0,0.0,0.0,47,0.00,CLR,,0.00,0.0,WeatherDisplay:10.37,2013-01-27 05:24:00,
2013-01-27 00:29:00,16.7,-0.1,30.33,North,0,0.0,0.0,47,0.00,CLR,,0.00,0.0,WeatherDisplay:10.37,2013-01-27 05:29:00,
2013-01-27 00:34:00,16.2,-1.0,30.33,North,0,0.0,0.0,46,0.00,CLR,,0.00,0.0,WeatherDisplay:10.37,2013-01-27 05:34:00,
2013-01-27 00:39:00,15.8,-0.9,30.33,North,0,0.0,0.0,47,0.00,CLR,,0.00,0.0,WeatherDisplay:10.37,2013-01-27 05:39:00,
2013-01-27 00:44:00,15.3,-1.9,30.33,North,0,0.0,0.0,46,0.00,CLR,,0.00,0.0,WeatherDisplay:10.37,2013-01-27 05:44:00,
2013-01-27 00:49:00,14.5,-2.5,30.33,North,0,0.0,0.0,46,0.00,CLR,,0.00,0.0,WeatherDisplay:10.37,2013-01-27 05:49:00,
2013-01-27 00:54:00,13.8,-3.2,30.33,North,0,0.0,0.0,46,0.00,CLR,,0.00,0.0,WeatherDisplay:10.37,2013-01-27 05:54:00,
2013-01-27 00:59:00,13.5,-3.5,30.33,North,0,0.0,0.0,46,0.00,CLR,,0.00,0.0,WeatherDisplay:10.37,2013-01-27 05:59:00,
2013-01-27 01:04:00,13.3,-3.7,30.33,North,0,0.0,0.0,46,0.00,CLR,,0.00,0.0,WeatherDisplay:10.37,2013-01-27 06:04:00,
2013-01-27 01:09:00,13.3,-3.7,30.33,North,0,0.0,0.0,46,0.00,CLR,,0.00,0.0,WeatherDisplay:10.37,2013-01-27 06:09:00,
2013-01-27 01:14:00,12.7,-4.2,30.33,North,0,0.0,0.0,46,0.00,CLR,,0.00,0.0,WeatherDisplay:10.37,2013-01-27 06:14:00,
2013-01-27 01:19:00,12.6,-4.3,30.33,North,0,0.0,0.0,46,0.00,CLR,,0.00,0.0,WeatherDisplay:10.37,2013-01-27 06:19:00,
2013-01-27 01:24:00,12.0,-4.8,30.33,North,0,0.0,0.0,46,0.00,CLR,,0.00,0.0,WeatherDisplay:10.37,2013-01-27 06:24:00,
2013-01-27 01:29:00,11.5,-5.3,30.33,North,0,0.0,0.0,46,0.00,CLR,,0.00,0.0,WeatherDisplay:10.37,2013-01-27 06:29:00,
2013-01-27 01:34:00,11.7,-5.2,30.33,North,0,0.0,0.0,46,0.00,CLR,,0.00,0.0,WeatherDisplay:10.37,2013-01-27 06:34:00,
2013-01-27 01:39:00,12.7,-4.2,30.33,North,0,0.0,0.0,46,0.00,CLR,,0.00,0.0,WeatherDisplay:10.37,2013-01-27 06:39:00,
2013-01-27 01:44:00,12.9,-4.0,30.33,North,0,0.0,0.0,46,0.00,CLR,,0.00,0.0,WeatherDisplay:10.37,2013-01-27 06:44:00,
2013-01-27 01:49:00,12.7,-4.2,30.33,North,0,0.0,0.0,46,0.00,CLR,,0.00,0.0,WeatherDisplay:10.37,2013-01-27 06:49:00,
2013-01-27 01:54:00,13.3,-3.7,30.33,North,0,0.0,0.0,46,0.00,CLR,,0.00,0.0,WeatherDisplay:10.37,2013-01-27 06:54:00,
2013-01-27 01:59:00,13.5,-3.5,30.33,North,0,0.0,0.0,46,0.00,CLR,,0.00,0.0,WeatherDisplay:10.37,2013-01-27 06:59:00,
2013-01-27 02:04:00,13.3,-3.7,30.33,North,0,0.0,0.0,46,0.00,CLR,,0.00,0.0,WeatherDisplay:10.37,2013-01-27 07:04:00,
2013-01-27 02:13:00,13.5,-3.5,30.36,North,0,0.0,0.0,46,0.00,CLR,,0.00,0.0,WeatherDisplay:10.37,2013-01-27 07:13:00,
2013-01-27 02:18:00,13.5,-3.5,30.36,North,0,0.0,0.0,46,0.00,CLR,,0.00,0.0,WeatherDisplay:10.37,2013-01-27 07:18:00,
2013-01-27 02:23:00,13.3,-3.7,30.36,North,0,0.0,0.0,46,0.00,CLR,,0.00,0.0,WeatherDisplay:10.37,2013-01-27 07:23:00,
2013-01-27 02:28:00,13.5,-3.5,30.33,North,0,0.0,0.0,46,0.00,CLR,,0.00,0.0,WeatherDisplay:10.37,2013-01-27 07:28:00,
2013-01-27 02:33:00,14.2,0.6,30.33,North,0,0.0,0.0,54,0.00,CLR,,0.00,0.0,WeatherDisplay:10.37,2013-01-27 07:33:00,
2013-01-27 02:38:00,14.5,1.3,30.33,North,0,0.0,0.0,55,0.00,CLR,,0.00,0.0,WeatherDisplay:10.37,2013-01-27 07:38:00,
2013-01-27 02:43:00,14.9,1.6,30.36,North,0,0.0,3.6,55,0.00,CLR,,0.00,0.0,WeatherDisplay:10.37,2013-01-27 07:43:00,
2013-01-27 02:48:00,15.1,1.8,30.36,North,0,0.0,4.6,55,0.00,CLR,,0.00,0.0,WeatherDisplay:10.37,2013-01-27 07:48:00,
2013-01-27 02:53:00,15.1,1.8,30.36,North,0,0.0,0.0,55,0.00,CLR,,0.00,0.0,WeatherDisplay:10.37,2013-01-27 07:53:00,
2013-01-27 02:58:00,14.9,1.2,30.33,North,0,0.0,0.0,54,0.00,CLR,,0.00,0.0,WeatherDisplay:10.37,2013-01-27 07:58:00,
2013-01-27 03:03:00,14.4,0.7,30.33,North,0,0.0,0.0,54,0.00,CLR,,0.00,0.0,WeatherDisplay:10.37,2013-01-27 08:03:00,
2013-01-27 03:08:00,13.8,0.2,30.33,North,0,0.0,0.0,54,0.00,CLR,,0.00,0.0,WeatherDisplay:10.37,2013-01-27 08:08:00,
2013-01-27 03:13:00,13.3,-0.3,30.33,North,0,0.0,0.0,54,0.00,CLR,,0.00,0.0,WeatherDisplay:10.37,2013-01-27 08:13:00,
2013-01-27 03:18:00,12.9,-0.6,30.33,North,0,0.0,0.0,54,0.00,CLR,,0.00,0.0,WeatherDisplay:10.37,2013-01-27 08:18:00,
2013-01-27 03:23:00,13.1,-0.5,30.33,North,0,0.0,0.0,54,0.00,CLR,,0.00,0.0,WeatherDisplay:10.37,2013-01-27 08:23:00,
2013-01-27 03:28:00,12.9,-0.6,30.33,North,0,0.0,0.0,54,0.00,CLR,,0.00,0.0,WeatherDisplay:10.37,2013-01-27 08:28:00,
2013-01-27 03:33:00,12.6,-1.0,30.33,North,0,0.0,0.0,54,0.00,CLR,,0.00,0.0,WeatherDisplay:10.37,2013-01-27 08:33:00,
2013-01-27 03:38:00,12.6,-1.0,30.33,North,0,0.0,0.0,54,0.00,CLR,,0.00,0.0,WeatherDisplay:10.37,2013-01-27 08:38:00,
2013-01-27 03:43:00,12.6,-1.0,30.33,North,0,0.0,0.0,54,0.00,CLR,,0.00,0.0,WeatherDisplay:10.37,2013-01-27 08:43:00,
2013-01-27 03:48:00,12.9,-0.6,30.33,North,0,0.0,0.0,54,0.00,CLR,,0.00,0.0,WeatherDisplay:10.37,2013-01-27 08:48:00,
2013-01-27 03:53:00,13.5,-0.1,30.33,North,0,0.0,0.0,54,0.00,CLR,,0.00,0.0,WeatherDisplay:10.37,2013-01-27 08:53:00,
2013-01-27 03:58:00,13.5,-0.1,30.33,North,0,0.0,2.3,54,0.00,CLR,,0.00,0.0,WeatherDisplay:10.37,2013-01-27 08:58:00,
2013-01-27 04:03:00,13.5,-0.1,30.33,North,0,2.6,3.5,54,0.00,CLR,,0.00,0.0,WeatherDisplay:10.37,2013-01-27 09:03:00,
2013-01-27 04:08:00,13.5,-0.1,30.33,North,0,2.6,3.5,54,0.00,CLR,,0.00,0.0,WeatherDisplay:10.37,2013-01-27 09:08:00,
2013-01-27 04:13:00,13.6,0.0,30.33,North,0,0.0,2.3,54,0.00,CLR,,0.00,0.0,WeatherDisplay:10.37,2013-01-27 09:13:00,
2013-01-27 04:18:00,14.2,0.9,30.33,North,0,0.0,0.0,55,0.00,CLR,,0.00,0.0,WeatherDisplay:10.37,2013-01-27 09:18:00,
2013-01-27 04:23:00,13.8,0.6,30.33,North,0,2.6,3.5,55,0.00,CLR,,0.00,0.0,WeatherDisplay:10.37,2013-01-27 09:23:00,
2013-01-27 04:28:00,14.4,1.1,30.33,NNE,22,2.2,3.5,55,0.00,CLR,,0.00,0.0,WeatherDisplay:10.37,2013-01-27 09:28:00,
2013-01-27 04:33:00,14.5,1.3,30.33,NNE,22,0.0,2.3,55,0.00,CLR,,0.00,0.0,WeatherDisplay:10.37,2013-01-27 09:33:00,
2013-01-27 04:38:00,14.7,1.5,30.33,NNE,22,0.0,0.0,55,0.00,CLR,,0.00,0.0,WeatherDisplay:10.37,2013-01-27 09:38:00,
2013-01-27 04:43:00,14.7,1.5,30.33,NNE,22,0.0,0.0,55,0.00,CLR,,0.00,0.0,WeatherDisplay:10.37,2013-01-27 09:43:00,
2013-01-27 04:48:00,14.5,1.3,30.33,NNE,22,0.0,0.0,55,0.00,CLR,,0.00,0.0,WeatherDisplay:10.37,2013-01-27 09:48:00,
2013-01-27 04:53:00,14.5,1.3,30.33,NNE,22,0.0,0.0,55,0.00,CLR,,0.00,0.0,WeatherDisplay:10.37,2013-01-27 09:53:00,
2013-01-27 04:58:00,14.0,0.8,30.33,NNE,22,0.0,0.0,55,0.00,CLR,,0.00,0.0,WeatherDisplay:10.37,2013-01-27 09:58:00,
2013-01-27 05:03:00,14.4,1.1,30.33,NNE,22,0.0,0.0,55,0.00,CLR,,0.00,0.0,WeatherDisplay:10.37,2013-01-27 10:03:00,
2013-01-27 05:08:00,14.4,0.7,30.33,NE,45,0.0,0.0,54,0.00,CLR,,0.00,0.0,WeatherDisplay:10.37,2013-01-27 10:08:00,
2013-01-27 05:13:00,14.4,0.7,30.33,NE,45,0.0,0.0,54,0.00,CLR,,0.00,0.0,WeatherDisplay:10.37,2013-01-27 10:13:00,
2013-01-27 05:18:00,14.2,0.6,30.33,NE,45,2.2,3.5,54,0.00,CLR,,0.00,0.0,WeatherDisplay:10.37,2013-01-27 10:18:00,
2013-01-27 05:23:00,13.8,0.2,30.33,NE,45,0.0,0.0,54,0.00,CLR,,0.00,0.0,WeatherDisplay:10.37,2013-01-27 10:23:00,
2013-01-27 05:28:00,14.0,0.4,30.36,NE,45,0.0,0.0,54,0.00,CLR,,0.00,0.0,WeatherDisplay:10.37,2013-01-27 10:28:00,
2013-01-27 05:33:00,13.8,0.2,30.36,NE,45,3.1,4.6,54,0.00,CLR,,0.00,0.0,WeatherDisplay:10.37,2013-01-27 10:33:00,
2013-01-27 05:38:00,13.5,-0.1,30.36,NE,45,3.6,4.6,54,0.00,CLR,,0.00,0.0,WeatherDisplay:10.37,2013-01-27 10:38:00,
2013-01-27 05:43:00,12.6,-1.0,30.33,NE,45,3.6,4.6,54,0.00,CLR,,0.00,0.0,WeatherDisplay:10.37,2013-01-27 10:43:00,
2013-01-27 05:48:00,12.7,-0.8,30.33,NE,45,3.6,4.6,54,0.00,CLR,,0.00,0.0,WeatherDisplay:10.37,2013-01-27 10:48:00,
2013-01-27 05:53:00,12.4,-1.1,30.33,ENE,68,2.2,3.5,54,0.00,CLR,,0.00,0.0,WeatherDisplay:10.37,2013-01-27 10:53:00,
2013-01-27 05:58:00,12.2,-1.3,30.33,ENE,68,2.6,3.5,54,0.00,CLR,,0.00,0.0,WeatherDisplay:10.37,2013-01-27 10:58:00,
2013-01-27 06:03:00,12.0,-1.5,30.33,ENE,68,3.1,4.6,54,0.00,CLR,,0.00,0.0,WeatherDisplay:10.37,2013-01-27 11:03:00,
2013-01-27 06:08:00,12.4,-1.1,30.33,ENE,68,2.2,3.5,54,0.00,CLR,,0.00,0.0,WeatherDisplay:10.37,2013-01-27 11:08:00,
2013-01-27 06:13:00,12.7,-0.8,30.36,ENE,68,0.0,2.6,54,0.00,CLR,,0.00,0.0,WeatherDisplay:10.37,2013-01-27 11:13:00,
2013-01-27 06:18:00,12.6,-1.0,30.36,ENE,68,2.2,2.6,54,0.00,CLR,,0.00,0.0,WeatherDisplay:10.37,2013-01-27 11:18:00,
2013-01-27 06:23:00,13.5,-0.1,30.36,East,90,2.6,4.6,54,0.00,CLR,,0.00,0.0,WeatherDisplay:10.37,2013-01-27 11:23:00,
2013-01-27 06:28:00,13.5,-0.1,30.36,SE,135,2.2,3.5,54,0.00,CLR,,0.00,0.0,WeatherDisplay:10.37,2013-01-27 11:28:00,
2013-01-27 06:33:00,14.5,1.7,30.36,ESE,112,2.2,4.6,56,0.00,CLR,,0.00,0.0,WeatherDisplay:10.37,2013-01-27 11:33:00,
2013-01-27 06:38:00,14.9,2.0,30.36,East,90,2.2,3.5,56,0.00,CLR,,0.00,0.0,WeatherDisplay:10.37,2013-01-27 11:38:00,
2013-01-27 06:43:00,14.9,1.6,30.36,East,90,2.2,3.5,55,0.00,CLR,,0.00,0.0,WeatherDisplay:10.37,2013-01-27 11:43:00,
2013-01-27 06:48:00,14.9,1.6,30.36,East,90,3.1,4.6,55,0.00,CLR,,0.00,0.0,WeatherDisplay:10.37,2013-01-27 11:48:00,
2013-01-27 06:53:00,14.5,0.9,30.36,ENE,68,0.0,4.6,54,0.00,CLR,,0.00,0.0,WeatherDisplay:10.37,2013-01-27 11:53:00,
2013-01-27 06:58:00,14.4,0.7,30.36,East,90,0.0,0.0,54,0.00,CLR,,0.00,0.0,WeatherDisplay:10.37,2013-01-27 11:58:00,
2013-01-27 07:03:00,13.5,-0.1,30.36,East,90,2.2,3.5,54,0.00,CLR,,0.00,0.0,WeatherDisplay:10.37,2013-01-27 12:03:00,
2013-01-27 07:08:00,13.1,-0.5,30.36,East,90,2.2,3.5,54,0.00,CLR,,0.00,0.0,WeatherDisplay:10.37,2013-01-27 12:08:00,
2013-01-27 07:13:00,12.9,-0.6,30.36,NE,45,2.6,4.6,54,0.00,OVC,,0.00,0.0,WeatherDisplay:10.37,2013-01-27 12:13:00,
2013-01-27 07:18:00,12.7,-0.8,30.36,East,90,0.0,2.3,54,0.00,OVC,,0.00,0.0,WeatherDisplay:10.37,2013-01-27 12:18:00,
2013-01-27 07:23:00,12.9,-0.6,30.36,East,90,2.2,4.6,54,0.00,OVC,,0.00,0.0,WeatherDisplay:10.37,2013-01-27 12:23:00,
2013-01-27 07:28:00,13.1,-0.5,30.39,East,90,0.0,3.5,54,0.00,OVC,,0.00,0.0,WeatherDisplay:10.37,2013-01-27 12:28:00,
2013-01-27 07:33:00,12.7,-0.8,30.39,ENE,68,0.0,0.0,54,0.00,OVC,,0.00,0.0,WeatherDisplay:10.37,2013-01-27 12:33:00,
2013-01-27 07:38:00,13.3,-0.3,30.39,East,90,3.6,5.8,54,0.00,OVC,,0.00,0.0,WeatherDisplay:10.37,2013-01-27 12:38:00,
2013-01-27 07:43:00,14.0,0.4,30.36,East,90,3.6,5.8,54,0.00,OVC,,0.00,0.0,WeatherDisplay:10.37,2013-01-27 12:43:00,
2013-01-27 07:48:00,13.6,0.0,30.36,East,90,4.0,4.6,54,0.00,OVC,,0.00,0.0,WeatherDisplay:10.37,2013-01-27 12:48:00,
2013-01-27 07:53:00,13.5,-0.1,30.36,ENE,68,4.9,6.2,54,0.00,OVC,,0.00,0.0,WeatherDisplay:10.37,2013-01-27 12:53:00,
2013-01-27 07:58:00,14.4,0.7,30.36,East,90,5.4,6.9,54,0.00,OVC,,0.00,0.0,WeatherDisplay:10.37,2013-01-27 12:58:00,
2013-01-27 08:03:00,15.1,1.4,30.36,East,90,4.0,6.2,54,0.00,OVC,,0.00,0.0,WeatherDisplay:10.37,2013-01-27 13:03:00,
2013-01-27 08:08:00,15.4,1.7,30.36,SE,135,4.5,5.8,54,0.00,OVC,,0.00,0.0,WeatherDisplay:10.37,2013-01-27 13:08:00,
2013-01-27 08:13:00,15.3,0.8,30.36,East,90,4.9,6.2,52,0.00,OVC,,0.00,0.0,WeatherDisplay:10.37,2013-01-27 13:13:00,
2013-01-27 08:18:00,15.1,0.2,30.36,East,90,4.9,6.2,51,0.00,OVC,,0.00,0.0,WeatherDisplay:10.37,2013-01-27 13:18:00,
2013-01-27 08:23:00,15.8,0.8,30.36,East,90,4.9,5.8,51,0.00,OVC,,0.00,0.0,WeatherDisplay:10.37,2013-01-27 13:23:00,
2013-01-27 08:28:00,16.3,0.9,30.36,ESE,112,5.4,6.9,50,0.00,OVC,,0.00,0.0,WeatherDisplay:10.37,2013-01-27 13:28:00,
2013-01-27 08:33:00,16.7,0.8,30.36,SE,135,4.5,5.9,49,0.00,OVC,,0.00,0.0,WeatherDisplay:10.37,2013-01-27 13:33:00,
2013-01-27 08:38:00,17.1,1.2,30.36,ESE,112,5.4,5.8,49,0.00,OVC,,0.00,100.0,WeatherDisplay:10.37,2013-01-27 13:38:00,
2013-01-27 08:43:00,17.2,0.9,30.39,East,90,4.9,8.1,48,0.00,OVC,,0.00,100.0,WeatherDisplay:10.37,2013-01-27 13:43:00,
2013-01-27 08:48:00,17.1,0.3,30.39,ENE,68,4.5,5.8,47,0.00,OVC,,0.00,100.0,WeatherDisplay:10.37,2013-01-27 13:48:00,
2013-01-27 08:53:00,17.1,0.3,30.39,East,90,4.5,5.8,47,0.00,OVC,,0.00,100.0,WeatherDisplay:10.37,2013-01-27 13:53:00,
2013-01-27 08:58:00,17.6,0.3,30.39,East,90,5.4,8.1,46,0.00,OVC,,0.00,100.0,WeatherDisplay:10.37,2013-01-27 13:58:00,
2013-01-27 09:03:00,17.4,0.1,30.39,East,90,5.9,8.1,46,0.00,OVC,,0.00,100.0,WeatherDisplay:10.37,2013-01-27 14:03:00,
2013-01-27 09:08:00,17.8,0.5,30.39,East,90,6.2,8.1,46,0.00,OVC,,0.00,100.0,WeatherDisplay:10.37,2013-01-27 14:08:00,
2013-01-27 09:13:00,18.5,1.1,30.39,East,90,8.3,9.2,46,0.00,OVC,,0.00,100.0,WeatherDisplay:10.37,2013-01-27 14:13:00,
2013-01-27 09:18:00,19.2,1.3,30.39,ENE,68,5.9,8.3,45,0.00,OVC,,0.00,200.0,WeatherDisplay:10.37,2013-01-27 14:18:00,
2013-01-27 09:23:00,19.8,1.8,30.39,East,90,4.9,7.6,45,0.00,OVC,,0.00,200.0,WeatherDisplay:10.37,2013-01-27 14:23:00,
2013-01-27 09:28:00,20.5,2.0,30.39,East,90,5.4,5.9,44,0.00,OVC,,0.00,200.0,WeatherDisplay:10.37,2013-01-27 14:28:00,
2013-01-27 09:33:00,20.8,1.8,30.39,East,90,6.2,9.2,43,0.00,OVC,,0.00,200.0,WeatherDisplay:10.37,2013-01-27 14:33:00,
2013-01-27 09:38:00,21.2,2.2,30.39,SE,135,6.2,9.2,43,0.00,OVC,,0.00,300.0,WeatherDisplay:10.37,2013-01-27 14:38:00,
2013-01-27 09:43:00,21.9,2.3,30.39,East,90,4.9,6.9,42,0.00,OVC,,0.00,300.0,WeatherDisplay:10.37,2013-01-27 14:43:00,
2013-01-27 09:48:00,21.7,2.1,30.39,SE,135,7.1,8.7,42,0.00,OVC,,0.00,300.0,WeatherDisplay:10.37,2013-01-27 14:48:00,
2013-01-27 09:53:00,21.6,1.5,30.39,SE,135,5.9,7.1,41,0.00,OVC,,0.00,300.0,WeatherDisplay:10.37,2013-01-27 14:53:00,
2013-01-27 09:58:00,21.7,1.6,30.39,SE,135,7.1,8.3,41,0.00,OVC,,0.00,400.0,WeatherDisplay:10.37,2013-01-27 14:58:00,
2013-01-27 10:03:00,21.9,1.2,30.39,East,90,6.2,8.1,40,0.00,OVC,,0.00,400.0,WeatherDisplay:10.37,2013-01-27 15:03:00,
2013-01-27 10:08:00,22.6,1.4,30.39,East,90,6.2,8.1,39,0.00,OVC,,0.00,400.0,WeatherDisplay:10.37,2013-01-27 15:08:00,
2013-01-27 10:13:00,22.6,1.4,30.39,East,90,6.2,7.6,39,0.00,OVC,,0.00,400.0,WeatherDisplay:10.37,2013-01-27 15:13:00,
2013-01-27 10:18:00,22.6,0.8,30.39,East,90,5.9,8.1,38,0.00,OVC,,0.00,400.0,WeatherDisplay:10.37,2013-01-27 15:18:00,
2013-01-27 10:23:00,22.8,1.0,30.39,East,90,4.9,8.1,38,0.00,OVC,,0.00,400.0,WeatherDisplay:10.37,2013-01-27 15:23:00,
2013-01-27 10:28:00,23.4,0.9,30.39,East,90,6.7,8.7,37,0.00,OVC,,0.00,400.0,WeatherDisplay:10.37,2013-01-27 15:28:00,
2013-01-27 10:33:00,23.7,1.2,30.39,East,90,6.2,8.3,37,0.00,OVC,,0.00,500.0,WeatherDisplay:10.37,2013-01-27 15:33:00,
2013-01-27 10:38:00,24.1,0.9,30.39,East,90,7.1,8.1,36,0.00,OVC,,0.00,500.0,WeatherDisplay:10.37,2013-01-27 15:38:00,
2013-01-27 10:44:00,24.4,1.3,30.39,ESE,112,5.9,6.2,36,0.00,OVC,,0.00,500.0,WeatherDisplay:10.37,2013-01-27 15:44:00,
2013-01-27 10:49:00,24.8,1.6,30.39,East,90,4.5,5.8,36,0.00,OVC,,0.00,500.0,WeatherDisplay:10.37,2013-01-27 15:49:00,
2013-01-27 10:54:00,25.3,1.5,30.39,East,90,4.9,5.9,35,0.00,OVC,,0.00,600.0,WeatherDisplay:10.37,2013-01-27 15:54:00,
2013-01-27 10:59:00,25.9,1.9,30.39,ESE,112,5.9,8.1,35,0.00,OVC,,0.00,600.0,WeatherDisplay:10.37,2013-01-27 15:59:00,
2013-01-27 11:04:00,26.2,1.6,30.39,East,90,5.4,7.1,34,0.00,OVC,,0.00,600.0,WeatherDisplay:10.37,2013-01-27 16:04:00,
2013-01-27 11:09:00,26.6,2.0,30.39,East,90,5.4,6.2,34,0.00,OVC,,0.00,600.0,WeatherDisplay:10.37,2013-01-27 16:09:00,
2013-01-27 11:14:00,26.6,2.0,30.39,SE,135,4.9,8.3,34,0.00,OVC,,0.00,700.0,WeatherDisplay:10.37,2013-01-27 16:14:00,
2013-01-27 11:19:00,26.8,1.5,30.39,East,90,5.4,6.9,33,0.00,OVC,,0.00,600.0,WeatherDisplay:10.37,2013-01-27 16:19:00,
2013-01-27 11:24:00,27.0,1.6,30.39,East,90,4.5,5.8,33,0.00,OVC,,0.00,600.0,WeatherDisplay:10.37,2013-01-27 16:24:00,
2013-01-27 11:29:00,26.8,1.5,30.39,East,90,5.9,8.1,33,0.00,OVC,,0.00,600.0,WeatherDisplay:10.37,2013-01-27 16:29:00,
2013-01-27 11:34:00,26.8,1.5,30.39,ESE,112,4.9,6.2,33,0.00,OVC,,0.00,400.0,WeatherDisplay:10.37,2013-01-27 16:34:00,
2013-01-27 11:39:00,26.1,1.5,30.39,SE,135,4.9,5.9,34,0.00,OVC,,0.00,400.0,WeatherDisplay:10.37,2013-01-27 16:39:00,
2013-01-27 11:44:00,26.2,1.6,30.36,East,90,3.6,5.8,34,0.00,OVC,,0.00,500.0,WeatherDisplay:10.37,2013-01-27 16:44:00,
2013-01-27 11:49:00,26.4,1.8,30.36,East,90,5.4,7.1,34,0.00,OVC,,0.00,700.0,WeatherDisplay:10.37,2013-01-27 16:49:00,
2013-01-27 11:54:00,27.9,2.4,30.36,SE,135,7.6,9.2,33,0.00,OVC,,0.00,700.0,WeatherDisplay:10.37,2013-01-27 16:54:00,
2013-01-27 11:59:00,27.5,2.1,30.36,East,90,7.1,9.2,33,0.00,OVC,,0.00,600.0,WeatherDisplay:10.37,2013-01-27 16:59:00,
2013-01-27 12:04:00,28.0,2.6,30.36,East,90,5.4,8.1,33,0.00,OVC,,0.00,700.0,WeatherDisplay:10.37,2013-01-27 17:04:00,
2013-01-27 12:09:00,28.0,2.6,30.36,ESE,112,6.7,8.1,33,0.00,OVC,,0.00,700.0,WeatherDisplay:10.37,2013-01-27 17:09:00,
2013-01-27 12:14:00,28.4,2.9,30.36,East,90,5.4,9.2,33,0.00,OVC,,0.00,800.0,WeatherDisplay:10.37,2013-01-27 17:14:00,
2013-01-27 12:19:00,28.4,2.9,30.36,SE,135,5.9,8.1,33,0.00,OVC,,0.00,500.0,WeatherDisplay:10.37,2013-01-27 17:19:00,
2013-01-27 12:24:00,28.0,2.6,30.36,East,90,5.4,5.9,33,0.00,OVC,,0.00,500.0,WeatherDisplay:10.37,2013-01-27 17:24:00,
2013-01-27 12:29:00,27.9,2.4,30.36,ESE,112,6.7,9.2,33,0.00,OVC,,0.00,600.0,WeatherDisplay:10.37,2013-01-27 17:29:00,
2013-01-27 12:34:00,28.0,2.6,30.36,ESE,112,6.7,8.1,33,0.00,OVC,,0.00,500.0,WeatherDisplay:10.37,2013-01-27 17:34:00,
2013-01-27 12:39:00,27.9,2.4,30.36,East,90,5.4,8.1,33,0.00,OVC,,0.00,500.0,WeatherDisplay:10.37,2013-01-27 17:39:00,
2013-01-27 12:44:00,28.0,2.6,30.33,East,90,4.9,8.1,33,0.00,OVC,,0.00,500.0,WeatherDisplay:10.37,2013-01-27 17:44:00,
2013-01-27 12:49:00,28.0,2.6,30.33,East,90,5.9,8.1,33,0.00,OVC,,0.00,600.0,WeatherDisplay:10.37,2013-01-27 17:49:00,
2013-01-27 12:54:00,28.4,2.9,30.33,East,90,5.9,9.2,33,0.00,OVC,,0.00,700.0,WeatherDisplay:10.37,2013-01-27 17:54:00,
2013-01-27 12:59:00,28.6,3.1,30.33,East,90,5.9,8.1,33,0.00,OVC,,0.00,600.0,WeatherDisplay:10.37,2013-01-27 17:59:00,
2013-01-27 13:04:00,28.6,3.1,30.33,ENE,68,7.1,8.7,33,0.00,OVC,,0.00,600.0,WeatherDisplay:10.37,2013-01-27 18:04:00,
2013-01-27 13:09:00,28.8,3.2,30.33,East,90,6.2,8.1,33,0.00,OVC,,0.00,600.0,WeatherDisplay:10.37,2013-01-27 18:09:00,
2013-01-27 13:14:00,29.1,3.5,30.33,ENE,68,4.0,8.1,33,0.00,OVC,,0.00,600.0,WeatherDisplay:10.37,2013-01-27 18:14:00,
2013-01-27 13:19:00,29.5,3.9,30.33,East,90,4.0,8.1,33,0.00,OVC,,0.00,700.0,WeatherDisplay:10.37,2013-01-27 18:19:00,
2013-01-27 13:24:00,29.7,4.0,30.33,ESE,112,5.4,8.1,33,0.00,OVC,,0.00,700.0,WeatherDisplay:10.37,2013-01-27 18:24:00,
2013-01-27 13:29:00,30.0,4.3,30.33,East,90,5.9,8.1,33,0.00,OVC,,0.00,600.0,WeatherDisplay:10.37,2013-01-27 18:29:00,
2013-01-27 13:34:00,30.2,3.8,30.33,East,90,3.6,5.8,32,0.00,OVC,,0.00,500.0,WeatherDisplay:10.37,2013-01-27 18:34:00,
2013-01-27 13:39:00,30.6,4.1,30.33,East,90,4.9,6.2,32,0.00,OVC,,0.00,500.0,WeatherDisplay:10.37,2013-01-27 18:39:00,
2013-01-27 13:44:00,31.5,4.9,30.33,East,90,5.9,6.7,32,0.00,OVC,,0.00,700.0,WeatherDisplay:10.37,2013-01-27 18:44:00,
2013-01-27 13:49:00,32.5,5.9,30.33,East,90,4.5,5.8,32,0.00,OVC,,0.00,700.0,WeatherDisplay:10.37,2013-01-27 18:49:00,
2013-01-27 13:54:00,32.9,6.2,30.33,East,90,5.9,7.1,32,0.00,OVC,,0.00,600.0,WeatherDisplay:10.37,2013-01-27 18:54:00,
2013-01-27 13:59:00,32.4,5.0,30.33,ENE,68,5.9,6.2,31,0.00,OVC,,0.00,600.0,WeatherDisplay:10.37,2013-01-27 18:59:00,
2013-01-27 14:04:00,32.0,4.7,30.33,East,90,4.5,5.8,31,0.00,OVC,,0.00,600.0,WeatherDisplay:10.37,2013-01-27 19:04:00,
2013-01-27 14:09:00,32.9,6.2,30.33,ENE,68,5.4,6.9,32,0.00,OVC,,0.00,800.0,WeatherDisplay:10.37,2013-01-27 19:09:00,
2013-01-27 14:14:00,33.6,6.8,30.30,ENE,68,6.7,8.1,32,0.00,OVC,,0.00,0.0,WeatherDisplay:10.37,2013-01-27 19:14:00,
2013-01-27 14:19:00,32.5,5.2,30.30,SE,135,7.1,9.2,31,0.00,OVC,,0.00,500.0,WeatherDisplay:10.37,2013-01-27 19:19:00,
2013-01-27 14:24:00,32.7,5.4,30.30,East,90,5.4,8.1,31,0.00,OVC,,0.00,0.0,WeatherDisplay:10.37,2013-01-27 19:24:00,
2013-01-27 14:29:00,33.1,5.7,30.30,ESE,112,6.2,8.1,31,0.00,OVC,,0.00,500.0,WeatherDisplay:10.37,2013-01-27 19:29:00,
2013-01-27 14:34:00,33.4,6.7,30.30,East,90,5.4,6.9,32,0.00,OVC,,0.00,600.0,WeatherDisplay:10.37,2013-01-27 19:34:00,
2013-01-27 14:39:00,34.0,6.5,30.30,East,90,4.0,5.8,31,0.00,OVC,,0.00,0.0,WeatherDisplay:10.37,2013-01-27 19:39:00,
2013-01-27 14:44:00,33.8,6.3,30.30,East,90,4.9,8.1,31,0.00,OVC,,0.00,0.0,WeatherDisplay:10.37,2013-01-27 19:44:00,
2013-01-27 14:49:00,33.4,6.0,30.30,East,90,7.6,10.4,31,0.00,OVC,,0.00,0.0,WeatherDisplay:10.37,2013-01-27 19:49:00,
2013-01-27 14:54:00,33.6,6.1,30.30,SE,135,7.1,8.1,31,0.00,OVC,,0.00,400.0,WeatherDisplay:10.37,2013-01-27 19:54:00,
2013-01-27 14:59:00,33.6,6.1,30.30,East,90,6.7,7.6,31,0.00,OVC,,0.00,400.0,WeatherDisplay:10.37,2013-01-27 19:59:00,
2013-01-27 15:04:00,33.6,6.1,30.30,SE,135,5.9,8.1,31,0.00,OVC,,0.00,400.0,WeatherDisplay:10.37,2013-01-27 20:04:00,
2013-01-27 15:09:00,33.8,6.3,30.30,SSE,158,4.9,5.8,31,0.00,OVC,,0.00,0.0,WeatherDisplay:10.37,2013-01-27 20:09:00,
2013-01-27 15:14:00,34.0,6.5,30.30,East,90,7.1,9.2,31,0.00,OVC,,0.00,300.0,WeatherDisplay:10.37,2013-01-27 20:14:00,
2013-01-27 15:19:00,33.3,5.8,30.30,SE,135,6.2,9.2,31,0.00,OVC,,0.00,300.0,WeatherDisplay:10.37,2013-01-27 20:19:00,
2013-01-27 15:24:00,33.3,5.8,30.30,East,90,5.9,8.1,31,0.00,OVC,,0.00,400.0,WeatherDisplay:10.37,2013-01-27 20:24:00,
2013-01-27 15:29:00,33.3,5.8,30.27,ESE,112,7.6,9.7,31,0.00,OVC,,0.00,300.0,WeatherDisplay:10.37,2013-01-27 20:29:00,
2013-01-27 15:34:00,32.9,5.5,30.27,East,90,8.7,9.7,31,0.00,OVC,,0.00,0.0,WeatherDisplay:10.37,2013-01-27 20:34:00,
2013-01-27 15:39:00,32.5,5.2,30.27,SE,135,7.6,10.5,31,0.00,OVC,,0.00,200.0,WeatherDisplay:10.37,2013-01-27 20:39:00,
2013-01-27 15:44:00,32.5,5.9,30.27,ESE,112,7.1,10.4,32,0.00,OVC,,0.00,200.0,WeatherDisplay:10.37,2013-01-27 20:44:00,
2013-01-27 15:49:00,32.4,5.7,30.27,East,90,7.1,10.4,32,0.00,OVC,,0.00,200.0,WeatherDisplay:10.37,2013-01-27 20:49:00,
2013-01-27 15:54:00,32.5,5.9,30.27,East,90,6.7,8.3,32,0.00,OVC,,0.00,200.0,WeatherDisplay:10.37,2013-01-27 20:54:00,
2013-01-27 15:59:00,32.4,5.7,30.24,ESE,112,5.4,8.1,32,0.00,OVC,,0.00,200.0,WeatherDisplay:10.37,2013-01-27 20:59:00,
2013-01-27 16:04:00,32.4,5.7,30.24,East,90,7.1,8.1,32,0.00,OVC,,0.00,0.0,WeatherDisplay:10.37,2013-01-27 21:04:00,
2013-01-27 16:09:00,32.4,5.7,30.24,SE,135,5.9,10.4,32,0.00,OVC,,0.00,0.0,WeatherDisplay:10.37,2013-01-27 21:09:00,
2013-01-27 16:14:00,32.4,5.7,30.24,ESE,112,6.7,9.2,32,0.00,OVC,,0.00,100.0,WeatherDisplay:10.37,2013-01-27 21:14:00,
2013-01-27 16:19:00,32.4,5.7,30.24,East,90,7.6,9.2,32,0.00,OVC,,0.00,100.0,WeatherDisplay:10.37,2013-01-27 21:19:00,
2013-01-27 16:24:00,32.2,5.6,30.24,ESE,112,8.1,10.9,32,0.00,OVC,,0.00,100.0,WeatherDisplay:10.37,2013-01-27 21:24:00,
2013-01-27 16:29:00,32.2,5.6,30.24,SE,135,4.5,5.9,32,0.00,OVC,,0.00,100.0,WeatherDisplay:10.37,2013-01-27 21:29:00,
2013-01-27 16:34:00,32.2,6.3,30.24,SE,135,5.4,5.8,33,0.00,OVC,,0.00,100.0,WeatherDisplay:10.37,2013-01-27 21:34:00,
2013-01-27 16:39:00,32.2,6.3,30.24,SE,135,4.9,8.1,33,0.00,OVC,,0.00,0.0,WeatherDisplay:10.37,2013-01-27 21:39:00,
2013-01-27 16:44:00,32.2,6.3,30.27,SE,135,5.4,7.1,33,0.00,OVC,,0.00,0.0,WeatherDisplay:10.37,2013-01-27 21:44:00,
2013-01-27 16:49:00,32.2,6.3,30.27,ESE,112,5.9,8.1,33,0.00,OVC,,0.00,0.0,WeatherDisplay:10.37,2013-01-27 21:49:00,
2013-01-27 16:54:00,32.4,6.4,30.27,SE,135,5.4,8.1,33,0.00,OVC,,0.00,0.0,WeatherDisplay:10.37,2013-01-27 21:54:00,
2013-01-27 16:59:00,32.4,6.4,30.27,SE,135,3.1,8.1,33,0.00,OVC,,0.00,0.0,WeatherDisplay:10.37,2013-01-27 21:59:00,
2013-01-27 17:04:00,32.4,6.4,30.27,SE,135,4.0,6.9,33,0.00,OVC,,0.00,0.0,WeatherDisplay:10.37,2013-01-27 22:04:00,
2013-01-27 17:09:00,32.4,6.4,30.27,East,90,4.5,5.8,33,0.00,OVC,,0.00,0.0,WeatherDisplay:10.37,2013-01-27 22:09:00,
2013-01-27 17:14:00,32.4,6.4,30.24,ESE,112,3.1,6.2,33,0.00,OVC,,0.00,0.0,WeatherDisplay:10.37,2013-01-27 22:14:00,
2013-01-27 17:19:00,32.2,6.3,30.24,East,90,5.4,6.2,33,0.00,OVC,,0.00,0.0,WeatherDisplay:10.37,2013-01-27 22:19:00,
2013-01-27 17:24:00,32.2,6.3,30.24,East,90,4.9,9.2,33,0.00,OVC,,0.00,0.0,WeatherDisplay:10.37,2013-01-27 22:24:00,
2013-01-27 17:29:00,32.2,6.9,30.24,East,90,3.6,5.8,34,0.00,OVC,,0.00,0.0,WeatherDisplay:10.37,2013-01-27 22:29:00,
2013-01-27 17:34:00,32.0,6.8,30.24,East,90,5.9,10.9,34,0.00,OVC,,0.00,0.0,WeatherDisplay:10.37,2013-01-27 22:34:00,
2013-01-27 17:39:00,32.0,6.8,30.24,East,90,3.6,5.9,34,0.00,OVC,,0.00,0.0,WeatherDisplay:10.37,2013-01-27 22:39:00,
2013-01-27 17:44:00,32.0,6.8,30.24,ESE,112,4.9,7.1,34,0.00,OVC,,0.00,0.0,WeatherDisplay:10.37,2013-01-27 22:44:00,
2013-01-27 17:49:00,32.0,6.8,30.24,SE,135,3.1,5.8,34,0.00,OVC,,0.00,0.0,WeatherDisplay:10.37,2013-01-27 22:49:00,
2013-01-27 17:54:00,32.0,6.8,30.24,East,90,2.6,5.8,34,0.00,OVC,,0.00,0.0,WeatherDisplay:10.37,2013-01-27 22:54:00,
2013-01-27 17:59:00,32.0,6.8,30.24,East,90,5.4,6.9,34,0.00,OVC,,0.00,0.0,WeatherDisplay:10.37,2013-01-27 22:59:00,
2013-01-27 18:04:00,32.0,6.8,30.24,ESE,112,4.9,8.1,34,0.00,CLR,,0.00,0.0,WeatherDisplay:10.37,2013-01-27 23:04:00,
2013-01-27 18:09:00,32.0,6.1,30.24,East,90,5.9,6.9,33,0.00,CLR,,0.00,0.0,WeatherDisplay:10.37,2013-01-27 23:09:00,
2013-01-27 18:14:00,32.0,6.1,30.24,ESE,112,4.9,7.1,33,0.00,CLR,,0.00,0.0,WeatherDisplay:10.37,2013-01-27 23:14:00,
2013-01-27 18:19:00,32.2,6.9,30.24,SSE,158,4.5,8.1,34,0.00,CLR,,0.00,0.0,WeatherDisplay:10.37,2013-01-27 23:19:00,
2013-01-27 18:24:00,32.0,6.8,30.24,East,90,4.9,5.8,34,0.00,CLR,,0.00,0.0,WeatherDisplay:10.37,2013-01-27 23:24:00,
2013-01-27 18:29:00,32.0,6.8,30.24,East,90,5.4,9.2,34,0.00,CLR,,0.00,0.0,WeatherDisplay:10.37,2013-01-27 23:29:00,
2013-01-27 18:34:00,32.0,6.8,30.24,ESE,112,5.9,7.1,34,0.00,CLR,,0.00,0.0,WeatherDisplay:10.37,2013-01-27 23:34:00,
2013-01-27 18:39:00,31.8,6.6,30.24,East,90,5.9,12.7,34,0.00,CLR,,0.00,0.0,WeatherDisplay:10.37,2013-01-27 23:39:00,
2013-01-27 18:44:00,31.8,6.6,30.24,NE,45,4.0,5.9,34,0.00,CLR,,0.00,0.0,WeatherDisplay:10.37,2013-01-27 23:44:00,
2013-01-27 18:49:00,31.8,6.6,30.24,East,90,5.4,8.1,34,0.00,CLR,,0.00,0.0,WeatherDisplay:10.37,2013-01-27 23:49:00,
2013-01-27 18:54:00,31.8,6.6,30.24,East,90,7.6,11.5,34,0.00,CLR,,0.00,0.0,WeatherDisplay:10.37,2013-01-27 23:54:00,
2013-01-27 18:59:00,31.8,6.6,30.24,East,90,5.4,10.4,34,0.00,CLR,,0.00,0.0,WeatherDisplay:10.37,2013-01-27 23:59:00,
2013-01-27 19:04:00,31.8,6.6,30.24,East,90,6.2,10.4,34,0.00,CLR,,0.00,0.0,WeatherDisplay:10.37,2013-01-28 00:04:00,
2013-01-27 19:09:00,31.8,6.6,30.24,East,90,6.7,9.2,34,0.00,CLR,,0.00,0.0,WeatherDisplay:10.37,2013-01-28 00:09:00,
2013-01-27 19:14:00,31.8,7.2,30.24,East,90,6.2,9.2,35,0.00,CLR,,0.00,0.0,WeatherDisplay:10.37,2013-01-28 00:14:00,
2013-01-27 19:19:00,31.8,6.6,30.24,East,90,7.6,9.2,34,0.00,CLR,,0.00,0.0,WeatherDisplay:10.37,2013-01-28 00:19:00,
2013-01-27 19:24:00,31.8,6.6,30.24,ESE,112,5.9,8.1,34,0.00,CLR,,0.00,0.0,WeatherDisplay:10.37,2013-01-28 00:24:00,
2013-01-27 19:29:00,31.8,6.6,30.21,East,90,6.2,9.2,34,0.00,CLR,,0.00,0.0,WeatherDisplay:10.37,2013-01-28 00:29:00,
2013-01-27 19:34:00,31.6,7.1,30.21,ENE,68,8.1,10.4,35,0.00,CLR,,0.00,0.0,WeatherDisplay:10.37,2013-01-28 00:34:00,
2013-01-27 19:39:00,31.6,7.1,30.21,East,90,7.1,11.5,35,0.00,CLR,,0.00,0.0,WeatherDisplay:10.37,2013-01-28 00:39:00,
2013-01-27 19:44:00,31.6,7.1,30.21,East,90,6.7,12.7,35,0.00,CLR,,0.00,0.0,WeatherDisplay:10.37,2013-01-28 00:44:00,
2013-01-27 19:49:00,31.6,6.4,30.21,East,90,6.7,9.2,34,0.00,CLR,,0.00,0.0,WeatherDisplay:10.37,2013-01-28 00:49:00,
2013-01-27 19:54:00,31.6,6.4,30.21,SE,135,6.7,9.2,34,0.00,CLR,,0.00,0.0,WeatherDisplay:10.37,2013-01-28 00:54:00,
2013-01-27 19:59:00,31.8,6.6,30.21,East,90,7.6,10.4,34,0.00,CLR,,0.00,0.0,WeatherDisplay:10.37,2013-01-28 00:59:00,
2013-01-27 20:04:00,31.8,6.6,30.21,SE,135,8.1,10.4,34,0.00,CLR,,0.00,0.0,WeatherDisplay:10.37,2013-01-28 01:04:00,
2013-01-27 20:09:00,31.8,6.6,30.21,East,90,8.1,10.9,34,0.00,CLR,,0.00,0.0,WeatherDisplay:10.37,2013-01-28 01:09:00,
2013-01-27 20:14:00,31.8,6.6,30.21,ESE,112,8.3,11.5,34,0.00,CLR,,0.00,0.0,WeatherDisplay:10.37,2013-01-28 01:14:00,
2013-01-27 20:19:00,31.8,6.6,30.21,SE,135,8.3,9.2,34,0.00,CLR,,0.00,0.0,WeatherDisplay:10.37,2013-01-28 01:19:00,
2013-01-27 20:24:00,31.8,6.6,30.21,SE,135,5.4,6.9,34,0.00,CLR,,0.00,0.0,WeatherDisplay:10.37,2013-01-28 01:24:00,
2013-01-27 20:29:00,31.8,6.6,30.21,ESE,112,8.3,9.2,34,0.00,CLR,,0.00,0.0,WeatherDisplay:10.37,2013-01-28 01:29:00,
2013-01-27 20:34:00,31.8,6.6,30.21,East,90,7.1,10.0,34,0.00,CLR,,0.00,0.0,WeatherDisplay:10.37,2013-01-28 01:34:00,
2013-01-27 20:39:00,31.8,6.6,30.21,ESE,112,5.4,8.1,34,0.00,CLR,,0.00,0.0,WeatherDisplay:10.37,2013-01-28 01:39:00,
2013-01-27 20:44:00,31.8,6.6,30.21,East,90,5.4,7.6,34,0.00,CLR,,0.00,0.0,WeatherDisplay:10.37,2013-01-28 01:44:00,
2013-01-27 20:49:00,31.8,6.6,30.21,SE,135,6.2,8.3,34,0.00,CLR,,0.00,0.0,WeatherDisplay:10.37,2013-01-28 01:49:00,
2013-01-27 20:54:00,31.8,7.2,30.21,East,90,4.9,6.9,35,0.00,CLR,,0.00,0.0,WeatherDisplay:10.37,2013-01-28 01:54:00,
2013-01-27 20:59:00,32.0,7.4,30.21,ESE,112,5.4,5.8,35,0.00,CLR,,0.00,0.0,WeatherDisplay:10.37,2013-01-28 01:59:00,
2013-01-27 21:05:00,32.0,7.4,30.21,East,90,3.1,4.6,35,0.00,CLR,,0.00,0.0,WeatherDisplay:10.37,2013-01-28 02:05:00,
2013-01-27 21:10:00,31.8,7.2,30.24,SE,135,2.6,3.5,35,0.00,CLR,,0.00,0.0,WeatherDisplay:10.37,2013-01-28 02:10:00,
2013-01-27 21:15:00,31.8,7.2,30.24,East,90,4.9,5.8,35,0.00,CLR,,0.00,0.0,WeatherDisplay:10.37,2013-01-28 02:15:00,
2013-01-27 21:20:00,31.8,7.9,30.24,ESE,112,2.2,4.0,36,0.00,CLR,,0.00,0.0,WeatherDisplay:10.37,2013-01-28 02:20:00,
2013-01-27 21:25:00,31.8,7.9,30.21,East,90,3.6,5.8,36,0.00,CLR,,0.00,0.0,WeatherDisplay:10.37,2013-01-28 02:25:00,
2013-01-27 21:30:00,31.8,7.9,30.21,East,90,3.6,5.8,36,0.00,CLR,,0.00,0.0,WeatherDisplay:10.37,2013-01-28 02:30:00,
2013-01-27 21:35:00,31.6,7.7,30.21,ESE,112,4.5,6.9,36,0.00,CLR,,0.00,0.0,WeatherDisplay:10.37,2013-01-28 02:35:00,
2013-01-27 21:40:00,31.6,8.3,30.21,East,90,4.9,5.8,37,0.00,CLR,,0.00,0.0,WeatherDisplay:10.37,2013-01-28 02:40:00,
2013-01-27 21:45:00,31.6,8.9,30.21,East,90,2.6,5.8,38,0.00,CLR,,0.00,0.0,WeatherDisplay:10.37,2013-01-28 02:45:00,
2013-01-27 21:50:00,31.5,9.9,30.21,East,90,4.0,5.8,40,0.00,CLR,,0.00,0.0,WeatherDisplay:10.37,2013-01-28 02:50:00,
2013-01-27 21:55:00,31.5,9.9,30.21,East,90,3.1,3.6,40,0.00,CLR,,0.00,0.0,WeatherDisplay:10.37,2013-01-28 02:55:00,
2013-01-27 22:00:00,31.5,10.4,30.21,ESE,112,4.0,5.8,41,0.00,CLR,,0.00,0.0,WeatherDisplay:10.37,2013-01-28 03:00:00,
2013-01-27 22:05:00,31.5,10.4,30.21,SE,135,4.5,5.8,41,0.00,CLR,,0.00,0.0,WeatherDisplay:10.37,2013-01-28 03:05:00,
2013-01-27 22:10:00,31.3,10.3,30.21,East,90,4.5,5.8,41,0.00,CLR,,0.00,0.0,WeatherDisplay:10.37,2013-01-28 03:10:00,
2013-01-27 22:15:00,31.3,10.3,30.21,ESE,112,2.6,4.0,41,0.00,CLR,,0.00,0.0,WeatherDisplay:10.37,2013-01-28 03:15:00,
2013-01-27 22:20:00,31.3,10.8,30.21,East,90,4.0,5.8,42,0.00,CLR,,0.00,0.0,WeatherDisplay:10.37,2013-01-28 03:20:00,
2013-01-27 22:25:00,31.5,11.0,30.21,East,90,3.1,3.6,42,0.00,CLR,,0.00,0.0,WeatherDisplay:10.37,2013-01-28 03:25:00,
2013-01-27 22:30:00,31.5,11.5,30.21,ESE,112,4.0,4.6,43,0.00,CLR,,0.00,0.0,WeatherDisplay:10.37,2013-01-28 03:30:00,
2013-01-27 22:35:00,31.5,11.5,30.21,East,90,4.5,5.8,43,0.00,CLR,,0.00,0.0,WeatherDisplay:10.37,2013-01-28 03:35:00,
2013-01-27 22:40:00,31.5,12.0,30.18,East,90,6.2,8.1,44,0.00,CLR,,0.00,0.0,WeatherDisplay:10.37,2013-01-28 03:40:00,
2013-01-27 22:45:00,31.5,12.0,30.18,SE,135,4.9,6.9,44,0.00,CLR,,0.00,0.0,WeatherDisplay:10.37,2013-01-28 03:45:00,
2013-01-27 22:50:00,31.5,12.5,30.18,ESE,112,4.9,9.2,45,0.00,CLR,,0.00,0.0,WeatherDisplay:10.37,2013-01-28 03:50:00,
2013-01-27 22:55:00,31.6,13.2,30.18,SE,135,4.5,8.1,46,0.00,CLR,,0.00,0.0,WeatherDisplay:10.37,2013-01-28 03:55:00,
2013-01-27 23:00:00,31.6,13.7,30.18,ESE,112,5.4,6.7,47,0.00,CLR,,0.00,0.0,WeatherDisplay:10.37,2013-01-28 04:00:00,
2013-01-27 23:05:00,31.8,14.8,30.18,East,90,8.3,11.5,49,0.00,CLR,,0.00,0.0,WeatherDisplay:10.37,2013-01-28 04:05:00,
2013-01-27 23:10:00,32.0,15.4,30.18,ESE,112,6.7,8.1,50,0.00,CLR,,0.00,0.0,WeatherDisplay:10.37,2013-01-28 04:10:00,
2013-01-27 23:15:00,32.0,15.9,30.18,East,90,6.7,8.1,51,0.00,CLR,,0.00,0.0,WeatherDisplay:10.37,2013-01-28 04:15:00,
2013-01-27 23:20:00,32.2,16.5,30.18,ESE,112,7.1,9.7,52,0.00,CLR,,0.00,0.0,WeatherDisplay:10.37,2013-01-28 04:20:00,
2013-01-27 23:25:00,32.4,17.1,30.15,SE,135,7.1,8.3,53,0.00,CLR,,0.00,0.0,WeatherDisplay:10.37,2013-01-28 04:25:00,
2013-01-27 23:30:00,32.5,17.7,30.15,East,90,7.6,10.5,54,0.00,CLR,,0.00,0.0,WeatherDisplay:10.37,2013-01-28 04:30:00,
2013-01-27 23:35:00,32.7,17.9,30.15,East,90,6.7,8.1,54,0.00,CLR,,0.00,0.0,WeatherDisplay:10.37,2013-01-28 04:35:00,
2013-01-27 23:40:00,33.1,18.7,30.15,ESE,112,5.9,9.2,55,0.00,CLR,,0.00,0.0,WeatherDisplay:10.37,2013-01-28 04:40:00,
2013-01-27 23:45:00,33.3,19.2,30.15,ESE,112,4.0,5.8,56,0.00,CLR,,0.00,0.0,WeatherDisplay:10.37,2013-01-28 04:45:00,
2013-01-27 23:50:00,33.4,19.8,30.15,East,90,4.9,7.1,57,0.00,CLR,,0.00,0.0,WeatherDisplay:10.37,2013-01-28 04:50:00,
2013-01-27 23:55:00,33.6,20.8,30.15,East,90,5.9,8.1,59,0.00,CLR,,0.00,0.0,WeatherDisplay:10.37,2013-01-28 04:55:00,